Flight Track Log - Related Links

Times and Time Zones

All times are in EDT time to prevent confusion due to time zone crossing. See the UAL1001 flight status page for this flight to view local times or setup timezone preferences in your user account.

Time Position Orientation Groundspeed Altitude Reporting Facility
EDT Latitude Longitude Course Direction KTS MPH feet Rate Location/Type
Tue 05:52:02 PM 41.9430 -87.9120 220° Southwest 187 215 1,700  Level FlightAware ADS-B
Tue 05:52:27 PM 41.9250 -87.9290 215° Southwest 212 244 2,300 2,073 Climbing FlightAware ADS-B
Tue 05:52:57 PM 41.9000 -87.9560 219° Southwest 228 262 3,600 2,509 Climbing FlightAware ADS-B
Tue 05:53:22 PM 41.8810 -87.9850 229° Southwest 249 287 4,600 2,250 Climbing FlightAware ADS-B
Tue 05:53:37 PM 41.8790 -88.0060 263° West 257 296 5,100 2,200 Climbing FlightAware ADS-B
Tue 05:54:22 PM 41.8870 -88.0750 279° West 262 302 6,800 2,657 Climbing FlightAware ADS-B
Tue 05:54:47 PM 41.8990 -88.1150 292° West 264 304 8,200 3,164 Climbing FlightAware ADS-B
Tue 05:55:17 PM 41.9140 -88.1570 296° West 268 308 9,700 2,571 Climbing FlightAware ADS-B
Tue 05:55:57 PM 41.9370 -88.2210 296° West 291 335 11,200 2,188 Climbing FlightAware ADS-B
Tue 05:56:42 PM 41.9650 -88.2990 296° West 314 361 12,800 2,329 Climbing FlightAware ADS-B
Tue 05:57:22 PM 41.9920 -88.3720 296° West 325 374 14,500 2,475 Climbing FlightAware ADS-B
Tue 05:58:02 PM 42.0180 -88.4470 295° West 334 384 16,100 2,400 Climbing FlightAware ADS-B
Tue 05:58:47 PM 42.0480 -88.5320 295° West 337 388 17,900 2,329 Climbing FlightAware ADS-B
Tue 05:59:27 PM 42.0590 -88.6100 281° West 327 376 19,400 2,259 Climbing FlightAware ADS-B
Tue 06:00:12 PM 42.0610 -88.7010 272° West 329 379 21,100 2,118 Climbing FlightAware ADS-B
Tue 06:00:52 PM 42.0640 -88.7860 273° West 333 383 22,400 1,800 Climbing FlightAware ADS-B
Tue 06:01:32 PM 42.0670 -88.8670 273° West 341 392 23,500 1,553 Climbing FlightAware ADS-B
Tue 06:02:17 PM 42.0710 -88.9650 273° West 351 404 24,600 1,694 Climbing FlightAware ADS-B
Tue 06:02:57 PM 42.0740 -89.0540 273° West 349 402 25,900 1,482 Climbing FlightAware ADS-B
Tue 06:03:42 PM 42.0780 -89.1510 273° West 358 412 26,700 706 Climbing FlightAware ADS-B
Tue 06:04:22 PM 42.0810 -89.2410 273° West 378 435 26,900 825 Climbing FlightAware ADS-B
Tue 06:05:02 PM 42.0850 -89.3380 273° West 381 438 27,800 1,482 Climbing FlightAware ADS-B
Tue 06:05:47 PM 42.0890 -89.4420 273° West 379 436 29,000 988 Climbing FlightAware ADS-B
Tue 06:06:27 PM 42.0940 -89.5350 274° West 395 455 29,200 847 Climbing FlightAware ADS-B
Tue 06:07:12 PM 42.1000 -89.6510 274° West 394 453 30,200 1,412 Climbing FlightAware ADS-B
Tue 06:07:52 PM 42.1040 -89.7480 273° West 388 447 31,200 1,500 Climbing FlightAware ADS-B
Tue 06:08:32 PM 42.1070 -89.8390 273° West 382 440 32,200 1,482 Climbing FlightAware ADS-B
Tue 06:09:17 PM 42.1070 -89.9480 270° West 372 428 33,300 1,271 Climbing FlightAware ADS-B
Tue 06:09:57 PM 42.1080 -90.0350 271° West 370 426 34,000 1,200 Climbing FlightAware ADS-B
Tue 06:10:42 PM 42.1090 -90.1420 271° West 363 418 35,000 1,271 Climbing FlightAware ADS-B
Tue 06:11:22 PM 42.1100 -90.2320 271° West 354 407 35,800 750 Climbing FlightAware ADS-B
Tue 06:12:02 PM 42.1100 -90.3120 270° West 356 410 36,000 141 Climbing FlightAware ADS-B
Tue 06:12:47 PM 42.1100 -90.4190 270° West 359 413 36,000  Level FlightAware ADS-B
Tue 06:13:27 PM 42.1110 -90.5070 271° West 361 415 36,000  Level FlightAware ADS-B
Tue 06:14:12 PM 42.1110 -90.6090 270° West 361 415 36,000  Level FlightAware ADS-B
Tue 06:14:52 PM 42.1110 -90.6950 270° West 359 413 36,000  Level FlightAware ADS-B
Tue 06:15:32 PM 42.1120 -90.7870 271° West 357 411 36,000  Level FlightAware ADS-B
Tue 06:16:17 PM 42.1120 -90.8820 270° West 355 409 36,000  Level FlightAware ADS-B
Tue 06:16:57 PM 42.1120 -90.9730 270° West 356 410 36,000  Level FlightAware ADS-B
Tue 06:17:42 PM 42.1120 -91.0610 270° West 356 410 36,000  Level FlightAware ADS-B
Tue 06:18:12 PM 42.1110 -91.1380 269° West 356 410 36,000  Level FlightAware ADS-B
Tue 06:19:17 PM 42.1110 -91.2750 270° West 354 407 36,000  Level FlightAware ADS-B
Tue 06:20:02 PM 42.1110 -91.3750 270° West 353 406 36,000  Level FlightAware ADS-B
Tue 06:20:42 PM 42.1100 -91.4610 269° West 351 404 36,000  Level FlightAware ADS-B
Tue 06:21:17 PM 42.1100 -91.5380 270° West 350 403 36,000  Level FlightAware ADS-B
Tue 06:22:07 PM 42.1090 -91.6470 269° West 349 402 36,000  Level FlightAware ADS-B
Tue 06:22:47 PM 42.1090 -91.7320 270° West 348 400 36,000  Level FlightAware ADS-B
Tue 06:23:27 PM 42.1080 -91.8180 269° West 348 400 36,000  Level FlightAware ADS-B
Tue 06:24:12 PM 42.1070 -91.9160 269° West 347 399 36,000  Level FlightAware ADS-B
Tue 06:24:52 PM 42.1070 -92.0030 270° West 346 398 36,000  Level FlightAware ADS-B
Tue 06:25:37 PM 42.1060 -92.0970 269° West 346 398 36,000  Level FlightAware ADS-B
Tue 06:26:32 PM 42.1040 -92.2160 269° West 347 399 36,000  Level FlightAware ADS-B
Tue 06:27:12 PM 42.1030 -92.3040 269° West 349 402 36,000  Level FlightAware ADS-B
Tue 06:27:57 PM 42.1020 -92.4030 269° West 351 404 36,000  Level FlightAware ADS-B
Tue 06:28:32 PM 42.1010 -92.4810 269° West 353 406 36,000  Level FlightAware ADS-B
Tue 06:29:47 PM 42.0990 -92.6500 269° West 357 411 36,000  Level FlightAware ADS-B
Tue 06:30:22 PM 42.0980 -92.7230 269° West 358 412 36,000  Level FlightAware ADS-B
Tue 06:31:12 PM 42.0960 -92.8340 269° West 360 414 36,000  Level FlightAware ADS-B
Tue 06:31:52 PM 42.0940 -92.9270 268° West 360 414 36,000  Level FlightAware ADS-B
Tue 06:32:32 PM 42.0930 -93.0160 269° West 359 413 36,000  Level FlightAware ADS-B
Tue 06:33:17 PM 42.0910 -93.1180 269° West 357 411 36,000  Level FlightAware ADS-B
Tue 06:33:57 PM 42.0890 -93.2070 268° West 357 411 36,000  Level FlightAware ADS-B
Tue 06:34:42 PM 42.0870 -93.3080 269° West 357 411 36,000  Level FlightAware ADS-B
Tue 06:35:22 PM 42.0860 -93.3870 269° West 357 411 36,000  Level FlightAware ADS-B
Tue 06:36:02 PM 42.0830 -93.4850 268° West 357 411 36,000  Level FlightAware ADS-B
Tue 06:36:47 PM 42.0810 -93.5800 268° West 357 411 36,000  Level FlightAware ADS-B
Tue 06:37:37 PM 42.0780 -93.6900 268° West 356 410 36,000  Level FlightAware ADS-B
Tue 06:38:22 PM 42.0760 -93.7840 268° West 355 409 36,000  Level FlightAware ADS-B
Tue 06:39:02 PM 42.0740 -93.8590 268° West 355 409 36,000  Level FlightAware ADS-B
Tue 06:39:42 PM 42.0720 -93.9340 268° West 355 409 36,000  Level FlightAware ADS-B
Tue 06:40:32 PM 42.0700 -94.0280 268° West 355 409 36,000  Level FlightAware ADS-B
Tue 06:41:12 PM 42.0680 -94.1030 268° West 355 409 36,000  Level FlightAware ADS-B
Tue 06:41:52 PM 42.0660 -94.1790 268° West 355 409 36,000  Level FlightAware ADS-B
Tue 06:42:32 PM 42.0640 -94.2540 268° West 355 409 36,000  Level FlightAware ADS-B
Tue 06:43:12 PM 42.0620 -94.3290 268° West 355 409 36,000  Level FlightAware ADS-B
Tue 06:44:02 PM 42.0600 -94.4230 268° West 355 409 36,000  Level FlightAware ADS-B
Tue 06:44:42 PM 42.0580 -94.4980 268° West 355 409 36,000  Level FlightAware ADS-B
Tue 06:45:22 PM 42.0560 -94.5730 268° West 355 409 36,000  Level FlightAware ADS-B
Tue 06:46:02 PM 42.0540 -94.6480 268° West 355 409 36,000  Level FlightAware ADS-B
Tue 06:46:42 PM 42.0520 -94.7240 268° West 355 409 36,000  Level FlightAware ADS-B
Tue 06:47:22 PM 42.0500 -94.7990 268° West 355 409 36,000  Level FlightAware ADS-B
Tue 06:48:30 PM 42.0353 -95.1183 268° West 358 412 36,000  Level Minneapolis Center
Tue 06:49:44 PM 42.0303 -95.2556 267° West 363 418 36,000  Level Minneapolis Center
Tue 06:50:46 PM 42.0233 -95.4472 267° West 368 423 36,000  Level Minneapolis Center
Tue 06:51:48 PM 42.0183 -95.5831 267° West 368 423 36,000  Level Minneapolis Center
Tue 06:52:51 PM 42.0122 -95.7206 267° West 369 425 36,000  Level Minneapolis Center
Tue 06:53:53 PM 42.0064 -95.8564 267° West 367 422 36,000  Level Minneapolis Center
Tue 06:54:55 PM 42.0003 -95.9914 267° West 366 421 36,000  Level Minneapolis Center
Tue 06:55:57 PM 41.9964 -96.1294 268° West 370 426 36,000  Level Minneapolis Center
Tue 06:56:59 PM 41.9914 -96.2928 268° West 369 425 36,000  Level Minneapolis Center
Tue 06:58:01 PM 41.9864 -96.4292 267° West 367 422 36,000  Level Minneapolis Center
Tue 06:59:03 PM 41.9825 -96.5672 268° West 370 426 36,000  Level Minneapolis Center
Tue 07:00:17 PM 41.9783 -96.7019 268° West 366 421 36,000  Level Minneapolis Center
Tue 07:01:19 PM 41.9717 -96.8639 267° West 364 419 36,000  Level Minneapolis Center
Tue 07:02:22 PM 41.9653 -97.0253 267° West 363 418 36,000  Level Minneapolis Center
Tue 07:03:24 PM 41.9603 -97.1597 267° West 362 417 36,000  Level Minneapolis Center
Tue 07:04:26 PM 41.9547 -97.2944 267° West 362 417 36,000  Level Minneapolis Center
Tue 07:05:28 PM 41.9492 -97.4311 267° West 366 421 36,000  Level Minneapolis Center
Tue 07:06:30 PM 41.9442 -97.5672 267° West 367 422 36,000  Level Minneapolis Center
Tue 07:07:32 PM 41.9381 -97.7042 267° West 367 422 36,000  Level Minneapolis Center
Tue 07:08:33 PM 41.9314 -97.8419 266° West 370 426 36,000  Level Minneapolis Center
Tue 07:09:36 PM 41.9239 -98.0075 267° West 371 427 36,000  Level Minneapolis Center
Tue 07:10:38 PM 41.9161 -98.1603 266° West 374 430 36,000  Level Minneapolis Center
Tue 07:11:52 PM 41.9100 -98.3003 267° West 376 433 36,000  Level Minneapolis Center
Tue 07:12:55 PM 41.8997 -98.4689 265° West 379 436 36,000  Level Minneapolis Center
Tue 07:13:56 PM 41.8831 -98.5797 259° West 380 437 36,000  Level Minneapolis Center
Tue 07:14:59 PM 41.8533 -98.7425 256° West 377 434 36,000  Level Minneapolis Center
Tue 07:16:01 PM 41.8175 -98.8747 250° West 379 436 36,000  Level Minneapolis Center
Tue 07:17:03 PM 41.7767 -99.0342 251° West 379 436 36,000  Level Minneapolis Center
Tue 07:18:03 PM 41.7422 -99.1667 251° West 378 435 36,000  Level Denver Center
Tue 07:19:05 PM 41.7072 -99.2978 250° West 377 434 36,000  Level Denver Center
Tue 07:20:07 PM 41.6728 -99.4303 251° West 378 435 36,000  Level Denver Center
Tue 07:21:09 PM 41.6383 -99.5625 251° West 378 435 36,000  Level Denver Center
Tue 07:22:11 PM 41.6042 -99.6953 251° West 379 436 36,000  Level Denver Center
Tue 07:23:13 PM 41.5619 -99.8494 250° West 381 438 36,000  Level Denver Center
Tue 07:24:15 PM 41.5272 -99.9786 250° West 386 444 36,000  Level Denver Center
Tue 07:25:16 PM 41.4867 -100.1311 250° West 390 449 36,000  Level Denver Center
Tue 07:26:18 PM 41.4517 -100.2625 250° West 394 453 36,000  Level Denver Center
Tue 07:27:20 PM 41.4094 -100.4167 250° West 397 457 36,000  Level Denver Center
Tue 07:28:22 PM 41.3731 -100.5475 250° West 397 457 36,000  Level Denver Center
Tue 07:34:32 PM 41.1313 -101.4140 250° West 398 458 36,000  Level FlightAware ADS-B
Tue 07:35:02 PM 41.1114 -101.4840 249° West 397 457 36,000  Level FlightAware ADS-B
Tue 07:35:32 PM 41.0919 -101.5520 249° West 397 457 36,000  Level FlightAware ADS-B
Tue 07:36:03 PM 41.0720 -101.6220 249° West 396 456 36,000  Level FlightAware ADS-B
Tue 07:36:34 PM 41.0525 -101.6900 249° West 396 456 36,000  Level FlightAware ADS-B
Tue 07:37:05 PM 41.0321 -101.7610 249° West 394 453 36,000  Level FlightAware ADS-B
Tue 07:37:35 PM 41.0126 -101.8280 249° West 394 453 36,000  Level FlightAware ADS-B
Tue 07:38:06 PM 40.9922 -101.8990 249° West 394 453 36,000  Level FlightAware ADS-B
Tue 07:38:38 PM 40.9719 -101.9690 249° West 393 452 36,000  Level FlightAware ADS-B
Tue 07:39:09 PM 40.9513 -102.0400 249° West 395 455 36,000  Level FlightAware ADS-B
Tue 07:39:39 PM 40.9314 -102.1070 249° West 397 457 36,000  Level FlightAware ADS-B
Tue 07:40:10 PM 40.9110 -102.1780 249° West 396 456 36,000  Level FlightAware ADS-B
Tue 07:40:41 PM 40.8909 -102.2470 249° West 397 457 36,000  Level FlightAware ADS-B
Tue 07:41:12 PM 40.8705 -102.3160 249° West 396 456 36,000  Level FlightAware ADS-B
Tue 07:41:42 PM 40.8501 -102.3840 248° West 397 457 36,000  Level FlightAware ADS-B
Tue 07:42:13 PM 40.8294 -102.4540 249° West 396 456 36,000  Level FlightAware ADS-B
Tue 07:42:43 PM 40.8093 -102.5220 249° West 396 456 36,000  Level FlightAware ADS-B
Tue 07:43:14 PM 40.7886 -102.5910 248° West 397 457 36,000  Level FlightAware ADS-B
Tue 07:43:45 PM 40.7683 -102.6600 249° West 397 457 36,000  Level FlightAware ADS-B
Tue 07:44:15 PM 40.7480 -102.7280 249° West 398 458 36,000  Level FlightAware ADS-B
Tue 07:44:46 PM 40.7270 -102.7980 248° West 399 459 36,000  Level FlightAware ADS-B
Tue 07:45:17 PM 40.7058 -102.8690 249° West 400 460 36,000  Level FlightAware ADS-B
Tue 07:45:49 PM 40.6844 -102.9400 248° West 400 460 36,000 -290 Level FlightAware ADS-B
Tue 07:46:19 PM 40.6639 -103.0080 248° West 399 459 35,700 -1,500 Descending FlightAware ADS-B
Tue 07:46:49 PM 40.6435 -103.0760 248° West 395 455 34,500 -3,246 Descending FlightAware ADS-B
Tue 07:47:20 PM 40.6221 -103.1460 248° West 408 470 32,400 -4,033 Descending FlightAware ADS-B
Tue 07:47:50 PM 40.6014 -103.2160 249° West 409 471 30,400 -3,443 Descending FlightAware ADS-B
Tue 07:48:21 PM 40.5796 -103.2870 248° West 409 471 28,900 -3,000 Descending FlightAware ADS-B
Tue 07:48:52 PM 40.5576 -103.3570 248° West 405 466 27,300 -2,754 Descending FlightAware ADS-B
Tue 07:49:22 PM 40.5366 -103.4250 248° West 398 458 26,100 -2,500 Descending FlightAware ADS-B
Tue 07:49:52 PM 40.5163 -103.4910 248° West 389 448 24,800 -2,516 Descending FlightAware ADS-B
Tue 07:50:24 PM 40.4949 -103.5610 248° West 385 443 23,500 -2,381 Descending FlightAware ADS-B
Tue 07:50:55 PM 40.4747 -103.6270 248° West 388 447 22,300 -2,361 Descending FlightAware ADS-B
Tue 07:51:25 PM 40.4542 -103.6930 248° West 386 444 21,100 -2,400 Descending FlightAware ADS-B
Tue 07:51:55 PM 40.4341 -103.7580 248° West 381 438 19,900 -2,164 Descending FlightAware ADS-B
Tue 07:52:26 PM 40.4134 -103.8240 248° West 379 436 18,900 -1,355 Descending FlightAware ADS-B
Tue 07:52:57 PM 40.3936 -103.8880 248° West 367 422 18,500 -677 Descending FlightAware ADS-B
Tue 07:53:28 PM 40.3743 -103.9500 248° West 344 396 18,200 -612 Descending FlightAware ADS-B
Tue 07:53:46 PM 40.3639 -103.9830 248° West 325 374 18,000 -621 Descending FlightAware ADS-B
Tue 07:53:57 PM 40.3597 -104.0040 255° West 313 360 17,900 -923 Descending FlightAware ADS-B
Tue 07:54:12 PM 40.3572 -104.0310 263° West 304 350 17,600 -1,600 Descending FlightAware ADS-B
Tue 07:54:42 PM 40.3566 -104.0870 269° West 299 344 16,700 -1,700 Descending FlightAware ADS-B
Tue 07:55:12 PM 40.3560 -104.1400 269° West 294 338 15,900 -1,475 Descending FlightAware ADS-B
Tue 07:55:43 PM 40.3552 -104.1940 269° West 289 333 15,200 -1,377 Descending FlightAware ADS-B
Tue 07:56:13 PM 40.3544 -104.2460 269° West 284 327 14,500 -1,171 Descending FlightAware ADS-B
Tue 07:56:24 PM 40.3541 -104.2640 269° West 276 318 14,400 -857 Descending FlightAware ADS-B
Tue 07:56:27 PM 40.3537 -104.2710 266° West 275 316 14,300 -857 Descending FlightAware ADS-B
Tue 07:56:31 PM 40.3530 -104.2760 260° West 275 316 14,300  Level FlightAware ADS-B
Tue 07:56:34 PM 40.3518 -104.2820 255° West 275 316 14,300 -857 Level FlightAware ADS-B
Tue 07:56:38 PM 40.3499 -104.2880 247° West 275 316 14,200 -1,235 Descending FlightAware ADS-B
Tue 07:57:08 PM 40.3334 -104.3310 243° Southwest 271 312 13,600 -1,017 Descending FlightAware ADS-B
Tue 07:57:37 PM 40.3164 -104.3740 243° Southwest 279 321 13,200 -1,424 Descending FlightAware ADS-B
Tue 07:58:07 PM 40.2987 -104.4190 243° Southwest 283 326 12,200 -1,811 Descending FlightAware ADS-B
Tue 07:58:30 PM 40.2849 -104.4560 244° Southwest 281 323 11,600 -1,440 Descending FlightAware ADS-B
Tue 07:58:57 PM 40.2695 -104.4950 243° Southwest 278 320 11,000 -1,455 Descending FlightAware ADS-B
Tue 07:59:03 PM 40.2655 -104.5040 240° Southwest 281 323 10,800 -2,400 Descending FlightAware ADS-B
Tue 07:59:07 PM 40.2622 -104.5090 229° Southwest 286 329 10,600 -2,000 Descending FlightAware ADS-B
Tue 07:59:12 PM 40.2577 -104.5150 225° Southwest 290 334 10,500 -2,000 Descending FlightAware ADS-B
Tue 07:59:16 PM 40.2532 -104.5190 214° Southwest 292 336 10,300 -2,286 Descending FlightAware ADS-B
Tue 07:59:33 PM 40.2315 -104.5340 208° Southwest 298 343 9,700 -1,818 Descending FlightAware ADS-B
Tue 07:59:49 PM 40.2124 -104.5450 204° Southwest 298 343 9,300 -1,548 Descending FlightAware ADS-B
Tue 08:00:04 PM 40.1935 -104.5570 206° Southwest 297 342 8,900 -1,200 Descending FlightAware ADS-B
Tue 08:00:19 PM 40.1749 -104.5690 206° Southwest 295 339 8,700 -1,448 Descending FlightAware ADS-B
Tue 08:00:33 PM 40.1570 -104.5800 205° Southwest 299 344 8,200 -1,548 Descending FlightAware ADS-B
Tue 08:00:50 PM 40.1370 -104.5940 208° Southwest 292 336 7,900 -938 Descending FlightAware ADS-B
Tue 08:01:05 PM 40.1195 -104.6060 208° Southwest 286 329 7,700 -800 Descending FlightAware ADS-B
Tue 08:01:20 PM 40.1015 -104.6190 209° Southwest 277 319 7,500 -581 Descending FlightAware ADS-B
Tue 08:01:36 PM 40.0847 -104.6310 209° Southwest 268 308 7,400 -968 Descending FlightAware ADS-B
Tue 08:01:51 PM 40.0680 -104.6430 209° Southwest 268 308 7,000 -1,200 Descending FlightAware ADS-B
Tue 08:02:06 PM 40.0517 -104.6540 207° Southwest 256 295 6,800 -500 Descending FlightAware ADS-B
Tue 08:02:15 PM 40.0427 -104.6610 211° Southwest 244 281 6,800 240 Level FlightAware ADS-B
Tue 08:02:31 PM 40.0279 -104.6720 210° Southwest 226 260 6,900  Climbing FlightAware ADS-B
Tue 08:02:46 PM 40.0146 -104.6810 207° Southwest 213 245 6,800 -300 Descending FlightAware ADS-B
Tue 08:02:51 PM 40.0110 -104.6840 213° Southwest 210 242 6,800  Level FlightAware ADS-B
Tue 08:02:54 PM 40.0083 -104.6850 196° South 209 241 6,800  Level FlightAware ADS-B
Tue 08:02:58 PM 40.0045 -104.6860 191° South 207 238 6,800  Level FlightAware ADS-B
Tue 08:03:02 PM 40.0000 -104.6870 190° South 207 238 6,800  Level FlightAware ADS-B
Tue 08:03:06 PM 39.9961 -104.6870 180° South 207 238 6,800 400 Level FlightAware ADS-B
Tue 08:03:17 PM 39.9864 -104.6860 175° South 199 229 6,900 353 Climbing FlightAware ADS-B
Tue 08:03:23 PM 39.9805 -104.6860 180° South 194 223 6,900 -857 Level FlightAware ADS-B
Tue 08:03:38 PM 39.9674 -104.6860 180° South 183 211 6,600 -1,091 Descending FlightAware ADS-B
Tue 08:03:45 PM 39.9619 -104.6860 180° South 178 205 6,500 -462 Descending FlightAware ADS-B
Tue 08:03:51 PM 39.9569 -104.6860 180° South 169 194 6,500 -1,000 Level FlightAware ADS-B
Tue 08:04:03 PM 39.9483 -104.6860 180° South 163 188 6,200 -1,043 Descending FlightAware ADS-B
Tue 08:04:14 PM 39.9402 -104.6860 180° South 159 183 6,100 -857 Descending FlightAware ADS-B
Tue 08:04:24 PM 39.9329 -104.6860 180° South 157 181 5,900 -1,059 Descending FlightAware ADS-B
Tue 08:04:31 PM 39.9273 -104.6870 188° South 156 180 5,800 -1,000 Descending FlightAware ADS-B
Tue 08:04:42 PM 39.9195 -104.6870 180° South 156 180 5,600 -947 Descending FlightAware ADS-B
Tue 08:04:50 PM 39.9140 -104.6870 180° South 158 182 5,500 -800 Descending FlightAware ADS-B
Tue 08:04:57 PM 39.9085 -104.6870 180° South 156 180 5,400 -818 Descending FlightAware ADS-B
Tue 08:05:12 PM 39.8979 -104.6870 180° South 153 176 5,200 -800 Descending FlightAware ADS-B

Login

Don't have an account? Register now (free) for customized features, flight alerts, and more!